• Join FlightAware (Why Join?)
  • Login
  • US Flag 
03:01AM EST


 

Airport Tracker/Info


-or-


 

Live Flight TrackerFlight Track Log ✈ N9533T ✈ 27-Jun-2014 ✈ K59 - K15

Flight Track Log - Related Links

Times and Time Zones

All times are in EDT time to prevent confusion due to time zone crossing. See the N9533T flight status page for this flight to view local times or setup timezone preferences in your user account.

Time Position Orientation Groundspeed Altitude Reporting Facility
EDT Latitude Longitude Course Direction KTS MPH feet Rate Location/Type
01:56PM 39.5500 -95.1333 123° Southeast 98 113 2,200  Level Kansas City TRACON
01:57PM 39.5333 -95.1000 123° Southeast 103 119 2,800 540 Climbing Kansas City TRACON
01:58PM 39.5000 -95.0833 159° South 110 127 3,300 420 Climbing Kansas City TRACON
01:59PM 39.4833 -95.0500 123° Southeast 118 136 3,700 600 Climbing Kansas City TRACON
02:00PM 39.4667 -95.0167 123° Southeast 108 124 4,600 600 Climbing Kansas City TRACON
02:01PM 39.4653 -95.0028 97° East 111 128 4,700 600 Climbing Kansas City Center
02:02PM 39.4422 -94.9644 128° Southeast 110 127 5,600 660 Climbing Kansas City Center
02:03PM 39.4242 -94.9306 125° Southeast 112 129 6,100 540 Climbing Kansas City Center
02:04PM 39.4056 -94.8972 126° Southeast 112 129 6,800 480 Climbing Kansas City Center
02:05PM 39.3850 -94.8622 127° Southeast 120 138 7,100 60 Climbing Kansas City Center
02:06PM 39.3622 -94.8197 125° Southeast 138 159 7,000 -60 Descending Kansas City Center
02:07PM 39.3386 -94.7783 126° Southeast 140 161 7,000  Level Kansas City Center
02:08PM 39.3122 -94.7306 126° Southeast 139 160 7,100  Climbing Kansas City Center
02:09PM 39.2864 -94.6983 136° Southeast 129 148 7,000 -60 Descending Kansas City Center
02:10PM 39.2558 -94.6750 149° Southeast 128 147 7,000  Level Kansas City Center
02:11PM 39.2253 -94.6511 149° Southeast 128 147 7,000  Level Kansas City Center
02:12PM 39.2028 -94.6136 128° Southeast 128 147 7,000  Level Kansas City Center
02:13PM 39.1825 -94.5761 125° Southeast 129 148 7,100  Climbing Kansas City Center
02:14PM 39.1600 -94.5367 126° Southeast 132 152 7,000  Descending Kansas City Center
02:15PM 39.1339 -94.4892 125° Southeast 133 153 7,100  Climbing Kansas City Center
02:16PM 39.1131 -94.4475 123° Southeast 135 155 7,100 -60 Level Kansas City Center
02:17PM 39.0919 -94.4075 124° Southeast 135 155 7,000 -60 Descending Kansas City Center
02:18PM 39.0711 -94.3678 124° Southeast 135 155 7,000  Level Kansas City Center
02:20PM 39.0492 -94.3292 126° Southeast 135 155 7,000  Level Kansas City Center
02:21PM 39.0231 -94.2828 126° Southeast 134 154 7,000  Level Kansas City Center
02:22PM 38.9994 -94.2436 128° Southeast 136 157 7,000  Level Kansas City Center
02:23PM 38.9767 -94.2044 127° Southeast 136 157 7,100  Climbing Kansas City Center
02:24PM 38.9558 -94.1639 123° Southeast 136 157 7,100 -60 Level Kansas City Center
02:25PM 38.9328 -94.1242 127° Southeast 137 158 7,000 -60 Descending Kansas City Center
02:26PM 38.9119 -94.0856 125° Southeast 136 157 7,000  Level Kansas City Center
02:27PM 38.8864 -94.0392 125° Southeast 135 155 7,100  Climbing Kansas City Center
02:28PM 38.8650 -93.9997 125° Southeast 135 155 7,000 -60 Descending Kansas City Center
02:29PM 38.8428 -93.9614 127° Southeast 134 154 7,000  Level Kansas City Center
02:30PM 38.8211 -93.9206 124° Southeast 135 155 7,000  Level Kansas City Center
02:31PM 38.7992 -93.8800 125° Southeast 137 158 7,100  Climbing Kansas City Center
02:32PM 38.7781 -93.8381 123° Southeast 138 159 7,000  Descending Kansas City Center
02:33PM 38.7517 -93.7883 124° Southeast 139 160 7,100  Climbing Kansas City Center
02:34PM 38.7286 -93.7478 126° Southeast 140 161 7,000  Descending Kansas City Center
02:35PM 38.7083 -93.7103 125° Southeast 140 161 7,100  Climbing Kansas City Center
02:36PM 38.6806 -93.6619 126° Southeast 140 161 7,000 -60 Descending Kansas City Center
02:37PM 38.6547 -93.6236 131° Southeast 140 161 7,000  Level Kansas City Center
02:38PM 38.6328 -93.5833 125° Southeast 140 161 7,000  Level Kansas City Center
02:39PM 38.6114 -93.5411 123° Southeast 140 161 7,000  Level Kansas City Center
02:40PM 38.5872 -93.5019 128° Southeast 140 161 7,100  Climbing Kansas City Center
02:41PM 38.5644 -93.4611 125° Southeast 140 161 7,000 -60 Descending Kansas City Center
02:42PM 38.5344 -93.4144 129° Southeast 140 161 7,000  Level Kansas City Center
02:43PM 38.5164 -93.3700 117° Southeast 140 161 7,100 -180 Climbing Kansas City Center
02:44PM 38.4922 -93.3275 126° Southeast 143 165 6,700 -360 Descending Kansas City Center
02:45PM 38.4658 -93.2889 131° Southeast 143 165 6,400 -300 Descending Kansas City Center
02:46PM 38.4417 -93.2458 126° Southeast 144 166 6,100 -360 Descending Kansas City Center
02:47PM 38.4200 -93.2031 123° Southeast 144 166 5,700 -480 Descending Kansas City Center
02:48PM 38.3875 -93.1614 135° Southeast 142 163 5,200 -480 Descending Kansas City Center
02:50PM 38.3633 -93.1225 128° Southeast 137 158 4,800 -540 Descending Kansas City Center
02:51PM 38.3414 -93.0847 127° Southeast 138 159 4,100 -420 Descending Kansas City Center
02:52PM 38.3197 -93.0478 127° Southeast 137 158 4,000 -60 Descending Kansas City Center
02:53PM 38.3000 -93.0147 127° Southeast 127 146 4,000  Level Kansas City Center
02:54PM 38.2792 -92.9769 125° Southeast 130 150 4,100  Climbing Kansas City Center
02:55PM 38.2589 -92.9392 124° Southeast 126 145 4,000  Descending Kansas City Center
02:56PM 38.2361 -92.8961 124° Southeast 127 146 4,100 60 Climbing Kansas City Center
02:58PM 38.1951 -92.8306 127° Southeast  Level FlightAware Approximate
03:05PM 38.1104 -92.6806 122° Southeast  Level Estimated
03:06PM 38.1104 -92.6806 122° Southeast  Level Estimated
03:07PM 38.1104 -92.6806 122° Southeast  Level Estimated
03:08PM 38.1104 -92.6806 122° Southeast  Level Estimated
03:09PM 38.1104 -92.6806 122° Southeast  Level Estimated
03:10PM 38.1104 -92.6806 122° Southeast  Level Estimated